createdAt,value
2023-06-01T00:00:15.344Z,75.77
2023-06-01T00:02:42.734Z,76.18
2023-06-01T00:05:09.487Z,76.94
2023-06-01T00:07:36.056Z,76.75
2023-06-01T00:10:02.596Z,76.67
2023-06-01T00:12:29.162Z,77.11
2023-06-01T00:14:56.189Z,76.55
2023-06-01T00:17:24.503Z,77.02
2023-06-01T00:19:51.068Z,77.41
2023-06-01T00:22:18.034Z,77.72
2023-06-01T00:24:44.783Z,78.64
2023-06-01T00:27:11.329Z,78.39
2023-06-01T00:29:37.833Z,78.43
2023-06-01T00:32:04.559Z,78.34
2023-06-01T00:34:33.169Z,78.20
2023-06-01T00:36:59.691Z,80.08
2023-06-01T00:39:26.217Z,82.32
2023-06-01T00:41:52.762Z,82.94
2023-06-01T00:44:19.261Z,83.26
2023-06-01T00:46:45.887Z,83.69
2023-06-01T00:49:12.530Z,83.56
2023-06-01T00:51:39.269Z,84.83
2023-06-01T00:54:05.815Z,85.75
2023-06-01T00:56:35.314Z,86.79
2023-06-01T00:59:05.295Z,86.64
2023-06-01T01:01:36.328Z,86.10
2023-06-01T01:04:05.329Z,86.32
2023-06-01T01:06:50.258Z,86.53
2023-06-01T01:09:41.653Z,85.67
2023-06-01T01:12:24.294Z,84.35
2023-06-01T01:15:06.815Z,83.67
2023-06-01T01:17:45.258Z,83.69
2023-06-01T01:20:18.964Z,82.46
2023-06-01T01:23:06.630Z,81.44
2023-06-01T01:25:48.185Z,82.98
2023-06-01T01:28:32.995Z,81.24
2023-06-01T01:31:01.032Z,81.35
2023-06-01T01:33:28.146Z,79.73
2023-06-01T01:35:54.794Z,80.34
2023-06-01T01:38:21.278Z,81.02
2023-06-01T01:40:47.771Z,80.62
2023-06-01T01:43:14.376Z,80.79
2023-06-01T01:45:41.491Z,81.77
2023-06-01T01:48:23.277Z,79.15
2023-06-01T01:50:57.049Z,78.22
2023-06-01T01:53:27.143Z,80.53
2023-06-01T01:55:56.743Z,79.92
2023-06-01T01:58:25.125Z,80.07
2023-06-01T02:00:53.439Z,80.34
2023-06-01T02:03:20.219Z,80.83
2023-06-01T02:05:46.782Z,81.65
2023-06-01T02:08:13.439Z,80.81
2023-06-01T02:10:41.856Z,81.90
2023-06-01T02:13:11.679Z,82.13
2023-06-01T02:15:41.466Z,82.47
2023-06-01T02:18:12.331Z,82.72
2023-06-01T02:20:41.910Z,84.53
2023-06-01T02:23:11.307Z,84.83
2023-06-01T02:25:40.281Z,85.99
2023-06-01T02:28:11.965Z,87.48
2023-06-01T02:30:39.410Z,88.10
2023-06-01T02:33:06.165Z,87.95
2023-06-01T02:35:32.717Z,88.20
2023-06-01T02:37:59.304Z,88.53
2023-06-01T02:40:25.867Z,87.99
2023-06-01T02:42:52.359Z,87.14
2023-06-01T02:45:18.966Z,87.48
2023-06-01T02:47:46.005Z,87.20
2023-06-01T02:50:12.544Z,88.36
2023-06-01T02:52:42.745Z,86.59
2023-06-01T02:55:11.814Z,86.91
2023-06-01T02:57:38.312Z,85.81
2023-06-01T03:00:06.070Z,86.33
2023-06-01T03:02:32.626Z,86.45
2023-06-01T03:04:59.191Z,86.64
2023-06-01T03:07:26.309Z,85.78
2023-06-01T03:09:52.831Z,84.59
2023-06-01T03:12:19.327Z,83.92
2023-06-01T03:14:45.894Z,84.93
2023-06-01T03:17:15.358Z,84.07
2023-06-01T03:19:44.932Z,83.81
2023-06-01T03:22:14.637Z,81.54
2023-06-01T03:24:51.765Z,79.50
2023-06-01T03:27:18.312Z,82.47
2023-06-01T03:29:44.796Z,82.65
2023-06-01T03:32:14.775Z,81.64
2023-06-01T03:34:44.485Z,80.03
2023-06-01T03:37:13.585Z,80.32
2023-06-01T03:39:40.936Z,80.87
2023-06-01T03:42:08.400Z,78.48
2023-06-01T03:44:35.007Z,79.99
2023-06-01T03:47:02.058Z,79.02
2023-06-01T03:49:28.638Z,78.99
2023-06-01T03:51:55.458Z,83.66
2023-06-01T03:54:22.130Z,83.23
2023-06-01T03:56:48.894Z,81.41
2023-06-01T03:59:16.152Z,80.27
2023-06-01T04:01:46.259Z,80.00
2023-06-01T04:04:15.593Z,80.52
2023-06-01T04:06:46.121Z,81.20
2023-06-01T04:09:15.987Z,81.42
2023-06-01T04:11:47.004Z,81.59
2023-06-01T04:14:15.879Z,82.51
2023-06-01T04:16:42.424Z,84.60
2023-06-01T04:19:08.926Z,84.47
2023-06-01T04:21:37.888Z,83.66
2023-06-01T04:24:04.675Z,83.71
2023-06-01T04:26:32.977Z,83.36
2023-06-01T04:29:00.052Z,83.37
2023-06-01T04:31:26.587Z,84.85
2023-06-01T04:33:57.589Z,85.59
2023-06-01T04:36:24.411Z,83.45
2023-06-01T04:38:55.234Z,84.39
2023-06-01T04:41:22.941Z,84.01
2023-06-01T04:43:53.865Z,84.35
2023-06-01T04:46:26.230Z,87.49
2023-06-01T04:49:00.798Z,87.48
2023-06-01T04:51:28.229Z,87.87
2023-06-01T04:53:55.138Z,86.58
2023-06-01T04:56:27.939Z,85.10
2023-06-01T04:58:56.103Z,84.94
2023-06-01T05:01:26.072Z,85.03
2023-06-01T05:03:56.116Z,84.99
2023-06-01T05:06:23.447Z,85.55
2023-06-01T05:08:50.023Z,86.49
2023-06-01T05:11:18.703Z,85.10
2023-06-01T05:13:45.550Z,84.14
2023-06-01T05:16:12.170Z,84.37
2023-06-01T05:18:39.251Z,84.96
2023-06-01T05:21:05.999Z,85.89
2023-06-01T05:23:33.476Z,86.56
2023-06-01T05:26:03.592Z,87.28
2023-06-01T05:28:35.663Z,87.77
2023-06-01T05:31:03.261Z,88.10
2023-06-01T05:33:30.705Z,88.25
2023-06-01T05:35:57.707Z,88.72
2023-06-01T05:38:24.570Z,88.70
2023-06-01T05:40:51.664Z,88.85
2023-06-01T05:43:20.348Z,89.09
2023-06-01T05:45:46.875Z,89.86
2023-06-01T05:48:15.611Z,87.77
2023-06-01T05:50:42.939Z,85.33
2023-06-01T05:53:10.734Z,86.22
2023-06-01T05:55:37.490Z,87.25
2023-06-01T05:58:04.190Z,86.57
2023-06-01T06:00:31.308Z,85.43
2023-06-01T06:02:57.947Z,86.71
2023-06-01T06:05:24.449Z,87.62
2023-06-01T06:07:51.909Z,88.48
2023-06-01T06:10:18.739Z,88.81
2023-06-01T06:12:45.470Z,88.46
2023-06-01T06:15:12.114Z,88.75
2023-06-01T06:17:38.741Z,86.40
2023-06-01T06:20:09.932Z,83.93
2023-06-01T06:22:37.393Z,84.46
2023-06-01T06:25:05.097Z,82.79
2023-06-01T06:27:31.705Z,82.43
2023-06-01T06:29:58.265Z,84.02
2023-06-01T06:32:24.945Z,83.15
2023-06-01T06:34:54.455Z,82.29
2023-06-01T06:37:24.415Z,81.04
2023-06-01T06:39:54.076Z,78.16
2023-06-01T06:42:25.892Z,76.08
2023-06-01T06:44:58.607Z,74.76
2023-06-01T06:47:26.024Z,76.99
2023-06-01T06:49:53.162Z,77.61
2023-06-01T06:52:23.830Z,76.09
2023-06-01T06:54:53.026Z,75.96
2023-06-01T06:57:22.821Z,78.43
2023-06-01T06:59:52.799Z,76.79
2023-06-01T07:02:22.913Z,77.15
2023-06-01T07:04:52.498Z,77.16
2023-06-01T07:07:22.148Z,77.58
2023-06-01T07:09:48.668Z,77.02
2023-06-01T07:12:15.952Z,77.91
2023-06-01T07:14:42.488Z,73.33
2023-06-01T07:17:10.363Z,73.66
2023-06-01T07:19:37.155Z,72.96
2023-06-01T07:22:04.147Z,71.19
2023-06-01T07:24:30.829Z,70.86
2023-06-01T07:26:58.566Z,71.85
2023-06-01T07:29:25.934Z,70.45
2023-06-01T07:31:55.492Z,71.28
2023-06-01T07:34:26.066Z,71.20
2023-06-01T07:37:08.943Z,70.28
2023-06-01T07:39:42.629Z,71.36
2023-06-01T07:42:09.529Z,69.50
2023-06-01T07:44:36.123Z,67.33
2023-06-01T07:47:02.718Z,69.08
2023-06-01T07:49:30.079Z,66.55
2023-06-01T07:51:57.782Z,68.67
2023-06-01T07:54:24.335Z,66.49
2023-06-01T07:56:54.852Z,63.81
2023-06-01T07:59:29.072Z,60.41
2023-06-01T08:01:57.177Z,58.73
2023-06-01T08:04:24.167Z,58.94
2023-06-01T08:06:54.596Z,62.32
2023-06-01T08:09:27.494Z,62.28
2023-06-01T08:11:54.876Z,57.40
2023-06-01T08:14:25.023Z,57.36
2023-06-01T08:16:54.997Z,54.68
2023-06-01T08:19:24.221Z,56.02
2023-06-01T08:21:54.361Z,55.93
2023-06-01T08:24:23.822Z,52.56
2023-06-01T08:26:52.573Z,54.47
2023-06-01T08:29:27.439Z,54.39
2023-06-01T08:32:01.428Z,52.96
2023-06-01T08:34:28.048Z,52.68
2023-06-01T08:36:55.468Z,53.58
2023-06-01T08:39:25.502Z,52.93
2023-06-01T08:42:05.110Z,51.59
2023-06-01T08:44:37.258Z,50.37
2023-06-01T08:47:07.148Z,49.43
2023-06-01T08:49:35.881Z,52.27
2023-06-01T08:52:08.273Z,50.69
2023-06-01T08:54:35.325Z,51.22
2023-06-01T08:57:04.995Z,51.08
2023-06-01T08:59:40.860Z,46.44
2023-06-01T09:02:07.631Z,47.59
2023-06-01T09:04:39.543Z,45.70
2023-06-01T09:07:06.814Z,44.14
2023-06-01T09:09:33.821Z,46.27
2023-06-01T09:12:18.900Z,44.13
2023-06-01T09:14:45.572Z,43.08
2023-06-01T09:17:16.683Z,44.25
2023-06-01T09:19:45.639Z,42.50
2023-06-01T09:22:13.716Z,41.94
2023-06-01T09:24:44.281Z,42.82
2023-06-01T09:27:11.454Z,40.35
2023-06-01T09:29:38.024Z,39.37
2023-06-01T09:32:05.177Z,38.70
2023-06-01T09:34:33.107Z,35.82
2023-06-01T09:37:07.678Z,35.52
2023-06-01T09:39:35.670Z,35.32
2023-06-01T09:42:07.973Z,34.73
2023-06-01T09:44:40.248Z,30.94
2023-06-01T09:47:12.998Z,33.53
2023-06-01T09:49:42.148Z,32.43
2023-06-01T09:52:11.040Z,33.09
2023-06-01T09:54:41.163Z,30.99
2023-06-01T09:57:12.156Z,30.54
2023-06-01T09:59:43.978Z,30.86
2023-06-01T10:02:19.823Z,30.46
2023-06-01T10:04:52.989Z,30.13
2023-06-01T10:07:27.311Z,29.42
2023-06-01T10:10:01.711Z,31.60
2023-06-01T10:12:29.582Z,33.31
2023-06-01T10:14:59.872Z,33.58
2023-06-01T10:17:27.576Z,34.54
2023-06-01T10:19:54.910Z,35.56
2023-06-01T10:22:25.108Z,35.96
2023-06-01T10:25:01.334Z,34.51
2023-06-01T10:27:40.516Z,35.51
2023-06-01T10:30:10.215Z,35.12
2023-06-01T10:32:49.263Z,35.88
2023-06-01T10:35:32.149Z,34.68
2023-06-01T10:38:07.853Z,35.58
2023-06-01T10:40:35.472Z,33.85
2023-06-01T10:43:02.422Z,36.57
2023-06-01T10:45:35.049Z,35.81
2023-06-01T10:48:03.708Z,35.88
2023-06-01T10:50:32.563Z,36.61
2023-06-01T10:53:33.526Z,35.04
2023-06-01T10:56:25.170Z,34.09
2023-06-01T10:59:13.633Z,34.18
2023-06-01T11:01:48.648Z,31.76
2023-06-01T11:04:16.448Z,29.79
2023-06-01T11:06:45.032Z,30.71
2023-06-01T11:09:13.111Z,28.93
2023-06-01T11:11:53.729Z,29.82
2023-06-01T11:14:26.445Z,29.10
2023-06-01T11:16:57.232Z,28.88
2023-06-01T11:19:29.030Z,28.42
2023-06-01T11:22:06.223Z,29.21
2023-06-01T11:24:37.924Z,27.75
2023-06-01T11:27:09.771Z,27.00
2023-06-01T11:29:36.784Z,25.50
2023-06-01T11:32:06.748Z,26.79
2023-06-01T11:34:42.297Z,27.01
2023-06-01T11:37:20.126Z,26.52
2023-06-01T11:39:48.399Z,26.78
2023-06-01T11:42:19.681Z,26.39
2023-06-01T11:44:57.541Z,26.33
2023-06-01T11:47:31.551Z,25.29
2023-06-01T11:49:58.142Z,26.38
2023-06-01T11:52:24.911Z,25.04
2023-06-01T11:54:55.760Z,25.81
2023-06-01T11:57:25.702Z,25.57
2023-06-01T11:59:56.674Z,26.27
2023-06-01T12:02:43.540Z,25.96
2023-06-01T12:05:10.949Z,26.20
2023-06-01T12:07:57.099Z,27.33
2023-06-01T12:10:27.041Z,25.45
2023-06-01T12:12:57.231Z,26.21
2023-06-01T12:15:27.174Z,24.83
2023-06-01T12:18:00.027Z,26.25
2023-06-01T12:20:31.697Z,25.69
2023-06-01T12:23:00.675Z,25.51
2023-06-01T12:25:27.964Z,26.13
2023-06-01T12:28:11.578Z,27.16
2023-06-01T12:30:38.455Z,25.95
2023-06-01T12:33:07.236Z,26.20
2023-06-01T12:35:34.487Z,25.08
2023-06-01T12:38:08.541Z,26.70
2023-06-01T12:40:36.460Z,26.57
2023-06-01T12:43:06.515Z,26.40
2023-06-01T12:45:39.664Z,27.11
2023-06-01T12:48:07.535Z,26.71
2023-06-01T12:50:34.512Z,25.74
2023-06-01T12:53:01.174Z,25.29
2023-06-01T12:55:27.676Z,28.09
2023-06-01T12:57:56.030Z,28.32
2023-06-01T13:00:30.866Z,28.34
2023-06-01T13:03:06.417Z,27.55
2023-06-01T13:05:33.568Z,26.75
2023-06-01T13:08:00.998Z,27.00
2023-06-01T13:10:27.811Z,26.88
2023-06-01T13:12:54.901Z,26.87
2023-06-01T13:15:22.465Z,27.52
2023-06-01T13:17:49.268Z,25.83
2023-06-01T13:20:17.940Z,26.44
2023-06-01T13:22:44.532Z,28.24
2023-06-01T13:25:37.034Z,28.33
2023-06-01T13:28:03.867Z,28.18
2023-06-01T13:30:30.951Z,28.37
2023-06-01T13:32:58.351Z,26.99
2023-06-01T13:35:25.230Z,27.13
2023-06-01T13:37:52.750Z,27.77
2023-06-01T13:40:24.145Z,28.03
2023-06-01T13:42:53.937Z,29.12
2023-06-01T13:45:26.901Z,28.31
2023-06-01T13:47:56.582Z,31.27
2023-06-01T13:50:24.694Z,31.00
2023-06-01T13:53:01.307Z,30.33
2023-06-01T13:55:38.133Z,30.67
2023-06-01T13:58:04.945Z,30.30
2023-06-01T14:00:31.852Z,31.01
2023-06-01T14:02:58.741Z,29.29
2023-06-01T14:05:32.094Z,30.62
2023-06-01T14:08:06.735Z,30.75
2023-06-01T14:10:35.253Z,31.37
2023-06-01T14:13:03.030Z,31.04
2023-06-01T14:15:29.714Z,30.96
2023-06-01T14:17:59.760Z,32.49
2023-06-01T14:20:31.016Z,30.70
2023-06-01T14:23:02.410Z,30.25
2023-06-01T14:25:29.592Z,30.57
2023-06-01T14:27:59.731Z,29.22
2023-06-01T14:30:30.555Z,30.41
2023-06-01T14:32:57.339Z,29.62
2023-06-01T14:35:26.214Z,30.46
2023-06-01T14:37:53.248Z,30.21
2023-06-01T14:40:19.976Z,28.79
2023-06-01T14:42:46.948Z,30.60
2023-06-01T14:45:13.643Z,30.04
2023-06-01T14:47:42.846Z,30.60
2023-06-01T14:50:10.812Z,31.91
2023-06-01T14:52:37.394Z,30.40
2023-06-01T14:55:04.324Z,31.30
2023-06-01T14:57:31.032Z,30.08
2023-06-01T15:00:03.970Z,30.29
2023-06-01T15:02:31.163Z,30.18
2023-06-01T15:04:57.891Z,29.18
2023-06-01T15:07:25.506Z,29.92
2023-06-01T15:09:57.032Z,30.84
2023-06-01T15:12:28.459Z,30.12
2023-06-01T15:15:05.924Z,30.24
2023-06-01T15:17:34.667Z,29.68
2023-06-01T15:20:01.577Z,31.22
2023-06-01T15:22:28.234Z,30.84
2023-06-01T15:24:57.730Z,31.08
2023-06-01T15:27:27.721Z,30.83
2023-06-01T15:29:56.505Z,30.80
2023-06-01T15:32:23.110Z,30.27
2023-06-01T15:34:49.797Z,30.94
2023-06-01T15:37:16.455Z,31.59
2023-06-01T15:39:43.106Z,31.42
2023-06-01T15:42:11.226Z,31.69
2023-06-01T15:44:43.107Z,31.08
2023-06-01T15:47:11.195Z,31.84
2023-06-01T15:49:40.952Z,32.08
2023-06-01T15:52:08.198Z,30.86
2023-06-01T15:54:36.174Z,31.25
2023-06-01T15:57:05.263Z,31.55
2023-06-01T15:59:31.967Z,31.08
2023-06-01T16:01:58.792Z,32.37
2023-06-01T16:04:27.644Z,33.54
2023-06-01T16:06:54.266Z,33.19
2023-06-01T16:09:24.518Z,33.84
2023-06-01T16:11:52.470Z,32.69
2023-06-01T16:14:19.126Z,32.55
2023-06-01T16:16:45.981Z,32.87
2023-06-01T16:19:15.425Z,33.58
2023-06-01T16:21:42.275Z,35.11
2023-06-01T16:24:09.460Z,35.30
2023-06-01T16:26:38.300Z,35.75
2023-06-01T16:29:05.038Z,35.88
2023-06-01T16:31:31.850Z,35.28
2023-06-01T16:34:02.570Z,36.01
2023-06-01T16:36:29.296Z,35.58
2023-06-01T16:38:56.023Z,35.13
2023-06-01T16:41:22.781Z,34.92
2023-06-01T16:43:49.403Z,36.22
2023-06-01T16:46:16.206Z,37.32
2023-06-01T16:48:42.904Z,37.86
2023-06-01T16:51:09.500Z,38.89
2023-06-01T16:53:35.984Z,40.55
2023-06-01T16:56:02.612Z,39.38
2023-06-01T16:58:32.333Z,39.15
2023-06-01T17:00:58.937Z,40.58
2023-06-01T17:03:27.089Z,40.77
2023-06-01T17:05:56.040Z,40.97
2023-06-01T17:08:22.554Z,41.17
2023-06-01T17:10:49.092Z,41.59
2023-06-01T17:13:15.836Z,41.24
2023-06-01T17:15:42.552Z,41.80
2023-06-01T17:18:11.807Z,41.25
2023-06-01T17:20:41.233Z,41.81
2023-06-01T17:23:07.911Z,42.15
2023-06-01T17:25:34.815Z,41.41
2023-06-01T17:28:02.054Z,41.77
2023-06-01T17:30:29.633Z,41.78
2023-06-01T17:32:56.566Z,41.88
2023-06-01T17:35:23.222Z,42.49
2023-06-01T17:37:49.751Z,42.40
2023-06-01T17:40:16.399Z,42.85
2023-06-01T17:42:43.035Z,42.34
2023-06-01T17:45:10.631Z,42.32
2023-06-01T17:47:37.640Z,42.76
2023-06-01T17:50:04.522Z,43.99
2023-06-01T17:52:32.133Z,43.85
2023-06-01T17:54:58.684Z,44.27
2023-06-01T17:57:25.170Z,44.33
2023-06-01T17:59:52.530Z,44.71
2023-06-01T18:02:19.055Z,45.03
2023-06-01T18:04:45.596Z,44.52
2023-06-01T18:07:12.150Z,45.62
2023-06-01T18:09:38.673Z,45.31
2023-06-01T18:12:06.025Z,44.86
2023-06-01T18:14:32.550Z,44.97
2023-06-01T18:17:01.803Z,45.10
2023-06-01T18:19:28.380Z,45.64
2023-06-01T18:22:10.402Z,45.71
2023-06-01T18:24:53.685Z,46.25
2023-06-01T18:27:20.743Z,46.43
2023-06-01T18:29:47.369Z,46.63
2023-06-01T18:32:13.982Z,47.09
2023-06-01T18:34:40.600Z,47.42
2023-06-01T18:37:11.144Z,47.94
2023-06-01T18:39:53.662Z,48.52
2023-06-01T18:42:45.215Z,48.77
2023-06-01T18:45:12.034Z,48.96
2023-06-01T18:47:39.280Z,50.59
2023-06-01T18:50:06.563Z,50.03
2023-06-01T18:52:33.328Z,51.08
2023-06-01T18:55:05.880Z,50.94
2023-06-01T18:57:32.447Z,51.51
2023-06-01T19:03:34.136Z,52.91
2023-06-01T19:06:04.534Z,54.21
2023-06-01T19:08:32.964Z,54.03
2023-06-01T19:11:02.877Z,54.22
2023-06-01T19:13:35.581Z,54.66
2023-06-01T19:16:08.843Z,54.03
2023-06-01T19:18:35.450Z,53.96
2023-06-01T19:21:26.605Z,54.21
2023-06-01T19:23:58.508Z,54.38
2023-06-01T19:26:28.351Z,55.04
2023-06-01T19:29:06.758Z,55.78
2023-06-01T19:31:44.597Z,56.52
2023-06-01T19:34:13.029Z,56.93
2023-06-01T19:36:42.592Z,57.58
2023-06-01T19:39:32.310Z,57.39
2023-06-01T19:42:08.351Z,57.62
2023-06-01T19:44:35.765Z,58.04
2023-06-01T19:47:07.293Z,58.87
2023-06-01T19:49:39.803Z,59.29
2023-06-01T19:52:11.080Z,60.50
2023-06-01T19:54:39.202Z,61.63
2023-06-01T19:57:08.852Z,62.16
2023-06-01T19:59:37.680Z,63.22
2023-06-01T20:02:07.287Z,63.46
2023-06-01T20:04:38.488Z,63.27
2023-06-01T20:07:16.130Z,63.60
2023-06-01T20:09:42.847Z,63.39
2023-06-01T20:12:13.239Z,63.51
2023-06-01T20:14:40.074Z,63.52
2023-06-01T20:17:06.804Z,63.89
2023-06-01T20:20:26.529Z,63.82
2023-06-01T20:23:41.927Z,63.97
2023-06-01T20:26:11.188Z,64.34
2023-06-01T20:28:48.154Z,64.61
2023-06-01T20:31:17.269Z,64.71
2023-06-01T20:33:44.620Z,65.24
2023-06-01T20:36:12.452Z,65.45
2023-06-01T20:38:41.453Z,65.44
2023-06-01T20:41:10.562Z,66.03
2023-06-01T20:43:38.379Z,66.43
2023-06-01T20:46:12.813Z,67.17
2023-06-01T20:48:52.498Z,67.42
2023-06-01T20:51:34.384Z,67.71
2023-06-01T20:54:08.021Z,67.37
2023-06-01T20:56:39.794Z,67.85
2023-06-01T20:59:10.597Z,67.31
2023-06-01T21:01:39.960Z,67.77
2023-06-01T21:04:08.925Z,67.60
2023-06-01T21:06:36.331Z,67.61
2023-06-01T21:09:10.705Z,67.84
2023-06-01T21:11:41.659Z,68.04
2023-06-01T21:14:08.345Z,68.30
2023-06-01T21:16:35.105Z,68.17
2023-06-01T21:19:04.610Z,68.25
2023-06-01T21:21:33.833Z,68.44
2023-06-01T21:24:01.096Z,68.81
2023-06-01T21:26:27.844Z,68.76
2023-06-01T21:28:54.567Z,69.54
2023-06-01T21:31:21.518Z,70.67
2023-06-01T21:33:48.473Z,70.75
2023-06-01T21:36:15.279Z,70.74
2023-06-01T21:38:41.936Z,71.14
2023-06-01T21:41:10.638Z,71.40
2023-06-01T21:43:37.441Z,71.54
2023-06-01T21:46:07.477Z,72.19
2023-06-01T21:48:37.655Z,71.22
2023-06-01T21:51:08.846Z,72.55
2023-06-01T21:53:38.566Z,72.39
2023-06-01T21:56:07.496Z,72.60
2023-06-01T21:58:38.308Z,73.13
2023-06-01T22:01:09.212Z,73.70
2023-06-01T22:03:39.753Z,73.07
2023-06-01T22:06:07.628Z,73.24
2023-06-01T22:08:37.298Z,74.10
2023-06-01T22:11:07.475Z,73.97
2023-06-01T22:13:39.817Z,74.31
2023-06-01T22:16:07.688Z,74.75
2023-06-01T22:18:36.641Z,72.67
2023-06-01T22:21:03.308Z,73.18
2023-06-01T22:23:29.954Z,74.44
2023-06-01T22:25:56.550Z,74.97
2023-06-01T22:28:23.187Z,75.32
2023-06-01T22:30:49.779Z,75.44
2023-06-01T22:33:16.374Z,75.41
2023-06-01T22:35:42.996Z,75.25
2023-06-01T22:38:09.645Z,75.57
2023-06-01T22:40:38.462Z,76.25
2023-06-01T22:43:05.122Z,76.49
2023-06-01T22:45:31.898Z,76.57
2023-06-01T22:47:58.583Z,77.30
2023-06-01T22:50:25.532Z,77.92
2023-06-01T22:52:53.173Z,76.41
2023-06-01T22:55:19.836Z,76.76
2023-06-01T22:57:46.466Z,77.43
2023-06-01T23:00:13.245Z,77.15
2023-06-01T23:02:42.973Z,77.75
2023-06-01T23:05:13.768Z,78.32
2023-06-01T23:07:41.208Z,78.42
2023-06-01T23:10:11.798Z,78.94
2023-06-01T23:12:42.227Z,78.85
2023-06-01T23:15:13.333Z,78.20
2023-06-01T23:17:43.971Z,78.45
2023-06-01T23:20:14.897Z,78.98
2023-06-01T23:22:41.553Z,79.14
2023-06-01T23:25:11.203Z,79.23
2023-06-01T23:27:37.817Z,79.57
2023-06-01T23:30:04.611Z,81.19
2023-06-01T23:32:32.638Z,81.55
2023-06-01T23:34:59.313Z,82.33
2023-06-01T23:37:28.850Z,82.56
2023-06-01T23:39:55.852Z,82.74
2023-06-01T23:42:22.528Z,82.23
2023-06-01T23:44:49.110Z,82.21
2023-06-01T23:47:17.933Z,82.53
2023-06-01T23:49:44.548Z,83.53
2023-06-01T23:52:16.544Z,83.87
2023-06-01T23:54:43.150Z,83.56
2023-06-01T23:57:10.963Z,82.46
2023-06-01T23:59:37.581Z,81.18
